<?xml version="1.0" encoding="UTF-8" standalone="no" ?>
<gpx xmlns="http://www.topografix.com/GPX/1/1" xmlns:xsi="http://www.w3.org/2001/XMLSchema-instance" xsi:schemaLocation="http://www.topografix.com/GPX/1/1 http://www.topografix.com/GPX/1/1/gpx.xsd" version="1.1" creator="VisuGPX - https://www.visugpx.com">
  <metadata>
    <name>RANDO VTT landivisiau</name>
    <desc><![CDATA[Circuit rando LC du 05/03/2017]]></desc>
  </metadata>
  <trk>
    <name><![CDATA[OR-6872127--Landivisiau:landivisienne 2017]]></name>
    <trkseg>
      <trkpt lat="48.51424" lon="-4.0498">
        <ele>89</ele>
        <time>2016-12-23T11:00:33Z</time>
      </trkpt>
      <trkpt lat="48.5138" lon="-4.04913">
        <ele>86</ele>
        <time>2016-12-23T11:02:33Z</time>
      </trkpt>
      <trkpt lat="48.5133" lon="-4.04915">
        <ele>87</ele>
        <time>2016-12-23T11:04:33Z</time>
      </trkpt>
      <trkpt lat="48.50945" lon="-4.04898">
        <ele>85</ele>
        <time>2016-12-23T11:06:33Z</time>
      </trkpt>
      <trkpt lat="48.50856" lon="-4.0507">
        <ele>89</ele>
        <time>2016-12-23T11:08:33Z</time>
      </trkpt>
      <trkpt lat="48.50855" lon="-4.05104">
        <ele>90</ele>
        <time>2016-12-23T11:10:33Z</time>
      </trkpt>
      <trkpt lat="48.50844" lon="-4.05152">
        <ele>91</ele>
        <time>2016-12-23T11:12:33Z</time>
      </trkpt>
      <trkpt lat="48.50822" lon="-4.05205">
        <ele>91</ele>
        <time>2016-12-23T11:14:33Z</time>
      </trkpt>
      <trkpt lat="48.50808" lon="-4.05225">
        <ele>90</ele>
        <time>2016-12-23T11:16:33Z</time>
      </trkpt>
      <trkpt lat="48.50778" lon="-4.0525">
        <ele>89</ele>
        <time>2016-12-23T11:18:33Z</time>
      </trkpt>
      <trkpt lat="48.50661" lon="-4.0528">
        <ele>86</ele>
        <time>2016-12-23T11:20:33Z</time>
      </trkpt>
      <trkpt lat="48.50631" lon="-4.05319">
        <ele>83</ele>
        <time>2016-12-23T11:22:33Z</time>
      </trkpt>
      <trkpt lat="48.50556" lon="-4.05396">
        <ele>83</ele>
        <time>2016-12-23T11:24:33Z</time>
      </trkpt>
      <trkpt lat="48.50458" lon="-4.05497">
        <ele>81</ele>
        <time>2016-12-23T11:26:33Z</time>
      </trkpt>
      <trkpt lat="48.50414" lon="-4.05595">
        <ele>75</ele>
        <time>2016-12-23T11:28:33Z</time>
      </trkpt>
      <trkpt lat="48.50377" lon="-4.05626">
        <ele>75</ele>
        <time>2016-12-23T11:30:33Z</time>
      </trkpt>
      <trkpt lat="48.50336" lon="-4.0557">
        <ele>81</ele>
        <time>2016-12-23T11:32:33Z</time>
      </trkpt>
      <trkpt lat="48.50311" lon="-4.05596">
        <ele>78</ele>
        <time>2016-12-23T11:34:33Z</time>
      </trkpt>
      <trkpt lat="48.50283" lon="-4.05613">
        <ele>76</ele>
        <time>2016-12-23T11:36:33Z</time>
      </trkpt>
      <trkpt lat="48.50266" lon="-4.05615">
        <ele>75</ele>
        <time>2016-12-23T11:38:33Z</time>
      </trkpt>
      <trkpt lat="48.50278" lon="-4.05598">
        <ele>77</ele>
        <time>2016-12-23T11:40:33Z</time>
      </trkpt>
      <trkpt lat="48.50299" lon="-4.05564">
        <ele>80</ele>
        <time>2016-12-23T11:42:33Z</time>
      </trkpt>
      <trkpt lat="48.50299" lon="-4.0554">
        <ele>81</ele>
        <time>2016-12-23T11:44:33Z</time>
      </trkpt>
      <trkpt lat="48.50349" lon="-4.05493">
        <ele>88</ele>
        <time>2016-12-23T11:46:33Z</time>
      </trkpt>
      <trkpt lat="48.50386" lon="-4.05443">
        <ele>92</ele>
        <time>2016-12-23T11:48:33Z</time>
      </trkpt>
      <trkpt lat="48.5041" lon="-4.05398">
        <ele>98</ele>
        <time>2016-12-23T11:50:33Z</time>
      </trkpt>
      <trkpt lat="48.50436" lon="-4.05343">
        <ele>100</ele>
        <time>2016-12-23T11:52:33Z</time>
      </trkpt>
      <trkpt lat="48.50454" lon="-4.05317">
        <ele>101</ele>
        <time>2016-12-23T11:54:33Z</time>
      </trkpt>
      <trkpt lat="48.50409" lon="-4.0531">
        <ele>100</ele>
        <time>2016-12-23T11:56:33Z</time>
      </trkpt>
      <trkpt lat="48.50337" lon="-4.05274">
        <ele>87</ele>
        <time>2016-12-23T11:58:33Z</time>
      </trkpt>
      <trkpt lat="48.50359" lon="-4.05145">
        <ele>88</ele>
        <time>2016-12-23T12:00:33Z</time>
      </trkpt>
      <trkpt lat="48.50384" lon="-4.0504">
        <ele>92</ele>
        <time>2016-12-23T12:02:33Z</time>
      </trkpt>
      <trkpt lat="48.50486" lon="-4.05089">
        <ele>107</ele>
        <time>2016-12-23T12:04:33Z</time>
      </trkpt>
      <trkpt lat="48.50492" lon="-4.04954">
        <ele>105</ele>
        <time>2016-12-23T12:06:33Z</time>
      </trkpt>
      <trkpt lat="48.50533" lon="-4.04838">
        <ele>104</ele>
        <time>2016-12-23T12:08:33Z</time>
      </trkpt>
      <trkpt lat="48.50564" lon="-4.04731">
        <ele>100</ele>
        <time>2016-12-23T12:10:33Z</time>
      </trkpt>
      <trkpt lat="48.50598" lon="-4.04599">
        <ele>98</ele>
        <time>2016-12-23T12:12:33Z</time>
      </trkpt>
      <trkpt lat="48.50571" lon="-4.04586">
        <ele>94</ele>
        <time>2016-12-23T12:14:33Z</time>
      </trkpt>
      <trkpt lat="48.5059" lon="-4.04491">
        <ele>96</ele>
        <time>2016-12-23T12:16:33Z</time>
      </trkpt>
      <trkpt lat="48.50621" lon="-4.04329">
        <ele>95</ele>
        <time>2016-12-23T12:18:33Z</time>
      </trkpt>
      <trkpt lat="48.50652" lon="-4.04168">
        <ele>91</ele>
        <time>2016-12-23T12:20:33Z</time>
      </trkpt>
      <trkpt lat="48.50759" lon="-4.04246">
        <ele>111</ele>
        <time>2016-12-23T12:22:33Z</time>
      </trkpt>
      <trkpt lat="48.50773" lon="-4.04173">
        <ele>107</ele>
        <time>2016-12-23T12:24:33Z</time>
      </trkpt>
      <trkpt lat="48.50792" lon="-4.04059">
        <ele>108</ele>
        <time>2016-12-23T12:26:33Z</time>
      </trkpt>
      <trkpt lat="48.50714" lon="-4.03866">
        <ele>93</ele>
        <time>2016-12-23T12:28:33Z</time>
      </trkpt>
      <trkpt lat="48.50694" lon="-4.03837">
        <ele>90</ele>
        <time>2016-12-23T12:30:33Z</time>
      </trkpt>
      <trkpt lat="48.50688" lon="-4.03781">
        <ele>84</ele>
        <time>2016-12-23T12:32:33Z</time>
      </trkpt>
      <trkpt lat="48.50684" lon="-4.03746">
        <ele>80</ele>
        <time>2016-12-23T12:34:33Z</time>
      </trkpt>
      <trkpt lat="48.50675" lon="-4.03695">
        <ele>78</ele>
        <time>2016-12-23T12:36:33Z</time>
      </trkpt>
      <trkpt lat="48.50655" lon="-4.03687">
        <ele>75</ele>
        <time>2016-12-23T12:38:33Z</time>
      </trkpt>
      <trkpt lat="48.50672" lon="-4.03617">
        <ele>75</ele>
        <time>2016-12-23T12:40:33Z</time>
      </trkpt>
      <trkpt lat="48.50675" lon="-4.03578">
        <ele>74</ele>
        <time>2016-12-23T12:42:33Z</time>
      </trkpt>
      <trkpt lat="48.5078" lon="-4.0305">
        <ele>82</ele>
        <time>2016-12-23T12:44:33Z</time>
      </trkpt>
      <trkpt lat="48.50762" lon="-4.03051">
        <ele>79</ele>
        <time>2016-12-23T12:46:33Z</time>
      </trkpt>
      <trkpt lat="48.50736" lon="-4.03086">
        <ele>77</ele>
        <time>2016-12-23T12:48:33Z</time>
      </trkpt>
      <trkpt lat="48.50715" lon="-4.0309">
        <ele>74</ele>
        <time>2016-12-23T12:50:33Z</time>
      </trkpt>
      <trkpt lat="48.50701" lon="-4.03082">
        <ele>73</ele>
        <time>2016-12-23T12:52:33Z</time>
      </trkpt>
      <trkpt lat="48.50691" lon="-4.03107">
        <ele>72</ele>
        <time>2016-12-23T12:54:33Z</time>
      </trkpt>
      <trkpt lat="48.50678" lon="-4.03164">
        <ele>71</ele>
        <time>2016-12-23T12:56:33Z</time>
      </trkpt>
      <trkpt lat="48.50665" lon="-4.03211">
        <ele>70</ele>
        <time>2016-12-23T12:58:33Z</time>
      </trkpt>
      <trkpt lat="48.50652" lon="-4.03277">
        <ele>70</ele>
        <time>2016-12-23T13:00:33Z</time>
      </trkpt>
      <trkpt lat="48.50632" lon="-4.03374">
        <ele>69</ele>
        <time>2016-12-23T13:02:33Z</time>
      </trkpt>
      <trkpt lat="48.50637" lon="-4.0351">
        <ele>68</ele>
        <time>2016-12-23T13:04:33Z</time>
      </trkpt>
      <trkpt lat="48.5062" lon="-4.03621">
        <ele>68</ele>
        <time>2016-12-23T13:06:33Z</time>
      </trkpt>
      <trkpt lat="48.50618" lon="-4.03649">
        <ele>68</ele>
        <time>2016-12-23T13:08:33Z</time>
      </trkpt>
      <trkpt lat="48.5065" lon="-4.03704">
        <ele>74</ele>
        <time>2016-12-23T13:10:33Z</time>
      </trkpt>
      <trkpt lat="48.50546" lon="-4.04231">
        <ele>80</ele>
        <time>2016-12-23T13:12:33Z</time>
      </trkpt>
      <trkpt lat="48.50516" lon="-4.04219">
        <ele>72</ele>
        <time>2016-12-23T13:14:33Z</time>
      </trkpt>
      <trkpt lat="48.505" lon="-4.04241">
        <ele>70</ele>
        <time>2016-12-23T13:16:33Z</time>
      </trkpt>
      <trkpt lat="48.50483" lon="-4.04297">
        <ele>71</ele>
        <time>2016-12-23T13:18:33Z</time>
      </trkpt>
      <trkpt lat="48.5047" lon="-4.04335">
        <ele>71</ele>
        <time>2016-12-23T13:20:33Z</time>
      </trkpt>
      <trkpt lat="48.50456" lon="-4.04391">
        <ele>72</ele>
        <time>2016-12-23T13:22:33Z</time>
      </trkpt>
      <trkpt lat="48.50448" lon="-4.04417">
        <ele>72</ele>
        <time>2016-12-23T13:24:33Z</time>
      </trkpt>
      <trkpt lat="48.50445" lon="-4.04437">
        <ele>72</ele>
        <time>2016-12-23T13:26:33Z</time>
      </trkpt>
      <trkpt lat="48.50432" lon="-4.04479">
        <ele>71</ele>
        <time>2016-12-23T13:28:33Z</time>
      </trkpt>
      <trkpt lat="48.5041" lon="-4.04481">
        <ele>68</ele>
        <time>2016-12-23T13:30:33Z</time>
      </trkpt>
      <trkpt lat="48.50389" lon="-4.04524">
        <ele>67</ele>
        <time>2016-12-23T13:32:33Z</time>
      </trkpt>
      <trkpt lat="48.50364" lon="-4.04587">
        <ele>66</ele>
        <time>2016-12-23T13:34:33Z</time>
      </trkpt>
      <trkpt lat="48.50342" lon="-4.04636">
        <ele>66</ele>
        <time>2016-12-23T13:36:33Z</time>
      </trkpt>
      <trkpt lat="48.50323" lon="-4.04704">
        <ele>68</ele>
        <time>2016-12-23T13:38:33Z</time>
      </trkpt>
      <trkpt lat="48.50293" lon="-4.0476">
        <ele>67</ele>
        <time>2016-12-23T13:40:33Z</time>
      </trkpt>
      <trkpt lat="48.50285" lon="-4.04818">
        <ele>67</ele>
        <time>2016-12-23T13:42:33Z</time>
      </trkpt>
      <trkpt lat="48.50274" lon="-4.04863">
        <ele>67</ele>
        <time>2016-12-23T13:44:33Z</time>
      </trkpt>
      <trkpt lat="48.50253" lon="-4.04957">
        <ele>65</ele>
        <time>2016-12-23T13:46:33Z</time>
      </trkpt>
      <trkpt lat="48.5023" lon="-4.05043">
        <ele>64</ele>
        <time>2016-12-23T13:48:33Z</time>
      </trkpt>
      <trkpt lat="48.50212" lon="-4.05159">
        <ele>63</ele>
        <time>2016-12-23T13:50:33Z</time>
      </trkpt>
      <trkpt lat="48.50197" lon="-4.05224">
        <ele>62</ele>
        <time>2016-12-23T13:52:33Z</time>
      </trkpt>
      <trkpt lat="48.50182" lon="-4.05316">
        <ele>61</ele>
        <time>2016-12-23T13:54:33Z</time>
      </trkpt>
      <trkpt lat="48.5017" lon="-4.05369">
        <ele>60</ele>
        <time>2016-12-23T13:56:33Z</time>
      </trkpt>
      <trkpt lat="48.50148" lon="-4.05451">
        <ele>61</ele>
        <time>2016-12-23T13:58:33Z</time>
      </trkpt>
      <trkpt lat="48.50128" lon="-4.05485">
        <ele>59</ele>
        <time>2016-12-23T14:00:33Z</time>
      </trkpt>
      <trkpt lat="48.50102" lon="-4.05501">
        <ele>56</ele>
        <time>2016-12-23T14:02:33Z</time>
      </trkpt>
      <trkpt lat="48.50125" lon="-4.0552">
        <ele>59</ele>
        <time>2016-12-23T14:04:33Z</time>
      </trkpt>
      <trkpt lat="48.50143" lon="-4.05531">
        <ele>62</ele>
        <time>2016-12-23T14:06:33Z</time>
      </trkpt>
      <trkpt lat="48.50165" lon="-4.05545">
        <ele>64</ele>
        <time>2016-12-23T14:08:33Z</time>
      </trkpt>
      <trkpt lat="48.5018" lon="-4.05533">
        <ele>66</ele>
        <time>2016-12-23T14:10:33Z</time>
      </trkpt>
      <trkpt lat="48.5019" lon="-4.0552">
        <ele>68</ele>
        <time>2016-12-23T14:12:33Z</time>
      </trkpt>
      <trkpt lat="48.50205" lon="-4.05558">
        <ele>70</ele>
        <time>2016-12-23T14:14:33Z</time>
      </trkpt>
      <trkpt lat="48.50229" lon="-4.05593">
        <ele>73</ele>
        <time>2016-12-23T14:16:33Z</time>
      </trkpt>
      <trkpt lat="48.50249" lon="-4.05609">
        <ele>75</ele>
        <time>2016-12-23T14:18:33Z</time>
      </trkpt>
      <trkpt lat="48.50253" lon="-4.05625">
        <ele>75</ele>
        <time>2016-12-23T14:20:33Z</time>
      </trkpt>
      <trkpt lat="48.50224" lon="-4.05653">
        <ele>72</ele>
        <time>2016-12-23T14:22:33Z</time>
      </trkpt>
      <trkpt lat="48.50209" lon="-4.05798">
        <ele>67</ele>
        <time>2016-12-23T14:24:33Z</time>
      </trkpt>
      <trkpt lat="48.50057" lon="-4.05867">
        <ele>59</ele>
        <time>2016-12-23T14:26:33Z</time>
      </trkpt>
      <trkpt lat="48.5" lon="-4.05897">
        <ele>57</ele>
        <time>2016-12-23T14:28:33Z</time>
      </trkpt>
      <trkpt lat="48.49971" lon="-4.05923">
        <ele>55</ele>
        <time>2016-12-23T14:30:33Z</time>
      </trkpt>
      <trkpt lat="48.4994" lon="-4.05962">
        <ele>53</ele>
        <time>2016-12-23T14:32:33Z</time>
      </trkpt>
      <trkpt lat="48.49961" lon="-4.06027">
        <ele>53</ele>
        <time>2016-12-23T14:34:33Z</time>
      </trkpt>
      <trkpt lat="48.49843" lon="-4.06134">
        <ele>52</ele>
        <time>2016-12-23T14:36:33Z</time>
      </trkpt>
      <trkpt lat="48.49814" lon="-4.06152">
        <ele>52</ele>
        <time>2016-12-23T14:38:33Z</time>
      </trkpt>
      <trkpt lat="48.49811" lon="-4.06185">
        <ele>52</ele>
        <time>2016-12-23T14:40:33Z</time>
      </trkpt>
      <trkpt lat="48.49799" lon="-4.06194">
        <ele>52</ele>
        <time>2016-12-23T14:42:33Z</time>
      </trkpt>
      <trkpt lat="48.49763" lon="-4.06202">
        <ele>52</ele>
        <time>2016-12-23T14:44:33Z</time>
      </trkpt>
      <trkpt lat="48.49751" lon="-4.06197">
        <ele>53</ele>
        <time>2016-12-23T14:46:33Z</time>
      </trkpt>
      <trkpt lat="48.49738" lon="-4.06197">
        <ele>55</ele>
        <time>2016-12-23T14:48:33Z</time>
      </trkpt>
      <trkpt lat="48.49735" lon="-4.06227">
        <ele>55</ele>
        <time>2016-12-23T14:50:33Z</time>
      </trkpt>
      <trkpt lat="48.49737" lon="-4.06284">
        <ele>54</ele>
        <time>2016-12-23T14:52:33Z</time>
      </trkpt>
      <trkpt lat="48.49737" lon="-4.06315">
        <ele>54</ele>
        <time>2016-12-23T14:54:33Z</time>
      </trkpt>
      <trkpt lat="48.49744" lon="-4.06425">
        <ele>53</ele>
        <time>2016-12-23T14:56:33Z</time>
      </trkpt>
      <trkpt lat="48.49752" lon="-4.06519">
        <ele>52</ele>
        <time>2016-12-23T14:58:33Z</time>
      </trkpt>
      <trkpt lat="48.49752" lon="-4.06619">
        <ele>53</ele>
        <time>2016-12-23T15:00:33Z</time>
      </trkpt>
      <trkpt lat="48.49757" lon="-4.06697">
        <ele>52</ele>
        <time>2016-12-23T15:02:33Z</time>
      </trkpt>
      <trkpt lat="48.49739" lon="-4.06707">
        <ele>54</ele>
        <time>2016-12-23T15:04:33Z</time>
      </trkpt>
      <trkpt lat="48.49736" lon="-4.06767">
        <ele>55</ele>
        <time>2016-12-23T15:06:33Z</time>
      </trkpt>
      <trkpt lat="48.49699" lon="-4.06779">
        <ele>61</ele>
        <time>2016-12-23T15:08:33Z</time>
      </trkpt>
      <trkpt lat="48.49685" lon="-4.06703">
        <ele>62</ele>
        <time>2016-12-23T15:10:33Z</time>
      </trkpt>
      <trkpt lat="48.49669" lon="-4.06609">
        <ele>65</ele>
        <time>2016-12-23T15:12:33Z</time>
      </trkpt>
      <trkpt lat="48.49668" lon="-4.06553">
        <ele>66</ele>
        <time>2016-12-23T15:14:33Z</time>
      </trkpt>
      <trkpt lat="48.49659" lon="-4.06483">
        <ele>69</ele>
        <time>2016-12-23T15:16:33Z</time>
      </trkpt>
      <trkpt lat="48.49621" lon="-4.06471">
        <ele>76</ele>
        <time>2016-12-23T15:18:33Z</time>
      </trkpt>
      <trkpt lat="48.49598" lon="-4.06463">
        <ele>80</ele>
        <time>2016-12-23T15:20:33Z</time>
      </trkpt>
      <trkpt lat="48.49584" lon="-4.06437">
        <ele>83</ele>
        <time>2016-12-23T15:22:33Z</time>
      </trkpt>
      <trkpt lat="48.49584" lon="-4.06409">
        <ele>84</ele>
        <time>2016-12-23T15:24:33Z</time>
      </trkpt>
      <trkpt lat="48.49587" lon="-4.06361">
        <ele>85</ele>
        <time>2016-12-23T15:26:33Z</time>
      </trkpt>
      <trkpt lat="48.4959" lon="-4.06319">
        <ele>85</ele>
        <time>2016-12-23T15:28:33Z</time>
      </trkpt>
      <trkpt lat="48.4952" lon="-4.06246">
        <ele>92</ele>
        <time>2016-12-23T15:30:33Z</time>
      </trkpt>
      <trkpt lat="48.49462" lon="-4.06239">
        <ele>98</ele>
        <time>2016-12-23T15:32:33Z</time>
      </trkpt>
      <trkpt lat="48.4937" lon="-4.06252">
        <ele>106</ele>
        <time>2016-12-23T15:34:33Z</time>
      </trkpt>
      <trkpt lat="48.49366" lon="-4.06243">
        <ele>106</ele>
        <time>2016-12-23T15:36:33Z</time>
      </trkpt>
      <trkpt lat="48.49333" lon="-4.06261">
        <ele>108</ele>
        <time>2016-12-23T15:38:33Z</time>
      </trkpt>
      <trkpt lat="48.49296" lon="-4.06276">
        <ele>108</ele>
        <time>2016-12-23T15:40:33Z</time>
      </trkpt>
      <trkpt lat="48.49276" lon="-4.06278">
        <ele>108</ele>
        <time>2016-12-23T15:42:33Z</time>
      </trkpt>
      <trkpt lat="48.49264" lon="-4.06277">
        <ele>108</ele>
        <time>2016-12-23T15:44:33Z</time>
      </trkpt>
      <trkpt lat="48.49181" lon="-4.05838">
        <ele>109</ele>
        <time>2016-12-23T15:46:33Z</time>
      </trkpt>
      <trkpt lat="48.49158" lon="-4.05846">
        <ele>109</ele>
        <time>2016-12-23T15:48:33Z</time>
      </trkpt>
      <trkpt lat="48.48935" lon="-4.0598">
        <ele>107</ele>
        <time>2016-12-23T15:50:33Z</time>
      </trkpt>
      <trkpt lat="48.48747" lon="-4.0607">
        <ele>109</ele>
        <time>2016-12-23T15:52:33Z</time>
      </trkpt>
      <trkpt lat="48.48694" lon="-4.0622">
        <ele>110</ele>
        <time>2016-12-23T15:54:33Z</time>
      </trkpt>
      <trkpt lat="48.48628" lon="-4.06271">
        <ele>112</ele>
        <time>2016-12-23T15:56:33Z</time>
      </trkpt>
      <trkpt lat="48.48588" lon="-4.06281">
        <ele>113</ele>
        <time>2016-12-23T15:58:33Z</time>
      </trkpt>
      <trkpt lat="48.48528" lon="-4.06302">
        <ele>114</ele>
        <time>2016-12-23T16:00:33Z</time>
      </trkpt>
      <trkpt lat="48.48463" lon="-4.06345">
        <ele>114</ele>
        <time>2016-12-23T16:02:33Z</time>
      </trkpt>
      <trkpt lat="48.48486" lon="-4.06451">
        <ele>115</ele>
        <time>2016-12-23T16:04:33Z</time>
      </trkpt>
      <trkpt lat="48.48502" lon="-4.06573">
        <ele>114</ele>
        <time>2016-12-23T16:06:33Z</time>
      </trkpt>
      <trkpt lat="48.4848" lon="-4.06585">
        <ele>114</ele>
        <time>2016-12-23T16:08:33Z</time>
      </trkpt>
      <trkpt lat="48.48453" lon="-4.06617">
        <ele>113</ele>
        <time>2016-12-23T16:10:33Z</time>
      </trkpt>
      <trkpt lat="48.48431" lon="-4.06622">
        <ele>113</ele>
        <time>2016-12-23T16:12:33Z</time>
      </trkpt>
      <trkpt lat="48.48426" lon="-4.06646">
        <ele>112</ele>
        <time>2016-12-23T16:14:33Z</time>
      </trkpt>
      <trkpt lat="48.48436" lon="-4.0669">
        <ele>111</ele>
        <time>2016-12-23T16:16:33Z</time>
      </trkpt>
      <trkpt lat="48.48436" lon="-4.06818">
        <ele>104</ele>
        <time>2016-12-23T16:18:33Z</time>
      </trkpt>
      <trkpt lat="48.48426" lon="-4.0687">
        <ele>99</ele>
        <time>2016-12-23T16:20:33Z</time>
      </trkpt>
      <trkpt lat="48.48391" lon="-4.06951">
        <ele>90</ele>
        <time>2016-12-23T16:22:33Z</time>
      </trkpt>
      <trkpt lat="48.48384" lon="-4.07003">
        <ele>86</ele>
        <time>2016-12-23T16:24:33Z</time>
      </trkpt>
      <trkpt lat="48.48366" lon="-4.07061">
        <ele>82</ele>
        <time>2016-12-23T16:26:33Z</time>
      </trkpt>
      <trkpt lat="48.48325" lon="-4.071">
        <ele>76</ele>
        <time>2016-12-23T16:28:33Z</time>
      </trkpt>
      <trkpt lat="48.48285" lon="-4.07169">
        <ele>70</ele>
        <time>2016-12-23T16:30:33Z</time>
      </trkpt>
      <trkpt lat="48.48262" lon="-4.07306">
        <ele>52</ele>
        <time>2016-12-23T16:32:33Z</time>
      </trkpt>
      <trkpt lat="48.48285" lon="-4.07317">
        <ele>52</ele>
        <time>2016-12-23T16:34:33Z</time>
      </trkpt>
      <trkpt lat="48.48352" lon="-4.07331">
        <ele>54</ele>
        <time>2016-12-23T16:36:33Z</time>
      </trkpt>
      <trkpt lat="48.48394" lon="-4.0734">
        <ele>56</ele>
        <time>2016-12-23T16:38:33Z</time>
      </trkpt>
      <trkpt lat="48.4841" lon="-4.07347">
        <ele>56</ele>
        <time>2016-12-23T16:40:33Z</time>
      </trkpt>
      <trkpt lat="48.48446" lon="-4.07363">
        <ele>55</ele>
        <time>2016-12-23T16:42:33Z</time>
      </trkpt>
      <trkpt lat="48.48485" lon="-4.07352">
        <ele>58</ele>
        <time>2016-12-23T16:44:33Z</time>
      </trkpt>
      <trkpt lat="48.48522" lon="-4.07374">
        <ele>58</ele>
        <time>2016-12-23T16:46:33Z</time>
      </trkpt>
      <trkpt lat="48.48534" lon="-4.07455">
        <ele>50</ele>
        <time>2016-12-23T16:48:33Z</time>
      </trkpt>
      <trkpt lat="48.48568" lon="-4.07537">
        <ele>54</ele>
        <time>2016-12-23T16:50:33Z</time>
      </trkpt>
      <trkpt lat="48.48565" lon="-4.07592">
        <ele>63</ele>
        <time>2016-12-23T16:52:33Z</time>
      </trkpt>
      <trkpt lat="48.485" lon="-4.0756">
        <ele>62</ele>
        <time>2016-12-23T16:54:33Z</time>
      </trkpt>
      <trkpt lat="48.4847" lon="-4.07569">
        <ele>64</ele>
        <time>2016-12-23T16:56:33Z</time>
      </trkpt>
      <trkpt lat="48.48443" lon="-4.07575">
        <ele>66</ele>
        <time>2016-12-23T16:58:33Z</time>
      </trkpt>
      <trkpt lat="48.48418" lon="-4.07562">
        <ele>64</ele>
        <time>2016-12-23T17:00:33Z</time>
      </trkpt>
      <trkpt lat="48.48413" lon="-4.07661">
        <ele>87</ele>
        <time>2016-12-23T17:02:33Z</time>
      </trkpt>
      <trkpt lat="48.48475" lon="-4.07668">
        <ele>86</ele>
        <time>2016-12-23T17:04:33Z</time>
      </trkpt>
      <trkpt lat="48.48565" lon="-4.07687">
        <ele>85</ele>
        <time>2016-12-23T17:06:33Z</time>
      </trkpt>
      <trkpt lat="48.48644" lon="-4.07689">
        <ele>80</ele>
        <time>2016-12-23T17:08:33Z</time>
      </trkpt>
      <trkpt lat="48.48693" lon="-4.07704">
        <ele>79</ele>
        <time>2016-12-23T17:10:33Z</time>
      </trkpt>
      <trkpt lat="48.48739" lon="-4.07727">
        <ele>77</ele>
        <time>2016-12-23T17:12:33Z</time>
      </trkpt>
      <trkpt lat="48.48809" lon="-4.07786">
        <ele>77</ele>
        <time>2016-12-23T17:14:33Z</time>
      </trkpt>
      <trkpt lat="48.48893" lon="-4.07824">
        <ele>72</ele>
        <time>2016-12-23T17:16:33Z</time>
      </trkpt>
      <trkpt lat="48.48955" lon="-4.0787">
        <ele>70</ele>
        <time>2016-12-23T17:18:33Z</time>
      </trkpt>
      <trkpt lat="48.4898" lon="-4.07992">
        <ele>75</ele>
        <time>2016-12-23T17:20:33Z</time>
      </trkpt>
      <trkpt lat="48.48974" lon="-4.08021">
        <ele>77</ele>
        <time>2016-12-23T17:22:33Z</time>
      </trkpt>
      <trkpt lat="48.48972" lon="-4.08202">
        <ele>85</ele>
        <time>2016-12-23T17:24:33Z</time>
      </trkpt>
      <trkpt lat="48.48898" lon="-4.08195">
        <ele>93</ele>
        <time>2016-12-23T17:26:33Z</time>
      </trkpt>
      <trkpt lat="48.4883" lon="-4.08227">
        <ele>101</ele>
        <time>2016-12-23T17:28:33Z</time>
      </trkpt>
      <trkpt lat="48.48812" lon="-4.08253">
        <ele>103</ele>
        <time>2016-12-23T17:30:33Z</time>
      </trkpt>
      <trkpt lat="48.48809" lon="-4.08185">
        <ele>103</ele>
        <time>2016-12-23T17:32:33Z</time>
      </trkpt>
      <trkpt lat="48.488" lon="-4.08111">
        <ele>102</ele>
        <time>2016-12-23T17:34:33Z</time>
      </trkpt>
      <trkpt lat="48.48795" lon="-4.08022">
        <ele>101</ele>
        <time>2016-12-23T17:36:33Z</time>
      </trkpt>
      <trkpt lat="48.48776" lon="-4.07931">
        <ele>102</ele>
        <time>2016-12-23T17:38:33Z</time>
      </trkpt>
      <trkpt lat="48.48738" lon="-4.07897">
        <ele>107</ele>
        <time>2016-12-23T17:40:33Z</time>
      </trkpt>
      <trkpt lat="48.48691" lon="-4.07884">
        <ele>114</ele>
        <time>2016-12-23T17:42:33Z</time>
      </trkpt>
      <trkpt lat="48.48671" lon="-4.07923">
        <ele>118</ele>
        <time>2016-12-23T17:44:33Z</time>
      </trkpt>
      <trkpt lat="48.48676" lon="-4.08">
        <ele>118</ele>
        <time>2016-12-23T17:46:33Z</time>
      </trkpt>
      <trkpt lat="48.48667" lon="-4.08107">
        <ele>118</ele>
        <time>2016-12-23T17:48:33Z</time>
      </trkpt>
      <trkpt lat="48.4866" lon="-4.08159">
        <ele>117</ele>
        <time>2016-12-23T17:50:33Z</time>
      </trkpt>
      <trkpt lat="48.48639" lon="-4.08176">
        <ele>118</ele>
        <time>2016-12-23T17:52:33Z</time>
      </trkpt>
      <trkpt lat="48.48625" lon="-4.08174">
        <ele>119</ele>
        <time>2016-12-23T17:54:33Z</time>
      </trkpt>
      <trkpt lat="48.48573" lon="-4.0817">
        <ele>121</ele>
        <time>2016-12-23T17:56:33Z</time>
      </trkpt>
      <trkpt lat="48.4849" lon="-4.08191">
        <ele>118</ele>
        <time>2016-12-23T17:58:33Z</time>
      </trkpt>
      <trkpt lat="48.48499" lon="-4.08295">
        <ele>118</ele>
        <time>2016-12-23T18:00:33Z</time>
      </trkpt>
      <trkpt lat="48.48519" lon="-4.08365">
        <ele>120</ele>
        <time>2016-12-23T18:02:33Z</time>
      </trkpt>
      <trkpt lat="48.48536" lon="-4.08423">
        <ele>121</ele>
        <time>2016-12-23T18:04:33Z</time>
      </trkpt>
      <trkpt lat="48.48542" lon="-4.08502">
        <ele>122</ele>
        <time>2016-12-23T18:06:33Z</time>
      </trkpt>
      <trkpt lat="48.48677" lon="-4.08453">
        <ele>122</ele>
        <time>2016-12-23T18:08:33Z</time>
      </trkpt>
      <trkpt lat="48.48699" lon="-4.08441">
        <ele>121</ele>
        <time>2016-12-23T18:10:33Z</time>
      </trkpt>
      <trkpt lat="48.48718" lon="-4.08386">
        <ele>118</ele>
        <time>2016-12-23T18:12:33Z</time>
      </trkpt>
      <trkpt lat="48.48748" lon="-4.08459">
        <ele>118</ele>
        <time>2016-12-23T18:14:33Z</time>
      </trkpt>
      <trkpt lat="48.48781" lon="-4.08599">
        <ele>120</ele>
        <time>2016-12-23T18:16:33Z</time>
      </trkpt>
      <trkpt lat="48.4881" lon="-4.08685">
        <ele>121</ele>
        <time>2016-12-23T18:18:33Z</time>
      </trkpt>
      <trkpt lat="48.48794" lon="-4.08805">
        <ele>124</ele>
        <time>2016-12-23T18:20:33Z</time>
      </trkpt>
      <trkpt lat="48.48834" lon="-4.08882">
        <ele>125</ele>
        <time>2016-12-23T18:22:33Z</time>
      </trkpt>
      <trkpt lat="48.48838" lon="-4.08925">
        <ele>125</ele>
        <time>2016-12-23T18:24:33Z</time>
      </trkpt>
      <trkpt lat="48.48973" lon="-4.08983">
        <ele>119</ele>
        <time>2016-12-23T18:26:33Z</time>
      </trkpt>
      <trkpt lat="48.49029" lon="-4.09015">
        <ele>114</ele>
        <time>2016-12-23T18:28:33Z</time>
      </trkpt>
      <trkpt lat="48.49087" lon="-4.09013">
        <ele>107</ele>
        <time>2016-12-23T18:30:33Z</time>
      </trkpt>
      <trkpt lat="48.4912" lon="-4.09032">
        <ele>104</ele>
        <time>2016-12-23T18:32:33Z</time>
      </trkpt>
      <trkpt lat="48.49128" lon="-4.09084">
        <ele>104</ele>
        <time>2016-12-23T18:34:33Z</time>
      </trkpt>
      <trkpt lat="48.4908" lon="-4.09099">
        <ele>109</ele>
        <time>2016-12-23T18:36:33Z</time>
      </trkpt>
      <trkpt lat="48.49046" lon="-4.0911">
        <ele>113</ele>
        <time>2016-12-23T18:38:33Z</time>
      </trkpt>
      <trkpt lat="48.49003" lon="-4.0917">
        <ele>119</ele>
        <time>2016-12-23T18:40:33Z</time>
      </trkpt>
      <trkpt lat="48.49003" lon="-4.09303">
        <ele>118</ele>
        <time>2016-12-23T18:42:33Z</time>
      </trkpt>
      <trkpt lat="48.48946" lon="-4.09324">
        <ele>123</ele>
        <time>2016-12-23T18:44:33Z</time>
      </trkpt>
      <trkpt lat="48.48903" lon="-4.09307">
        <ele>126</ele>
        <time>2016-12-23T18:46:33Z</time>
      </trkpt>
      <trkpt lat="48.48793" lon="-4.09191">
        <ele>129</ele>
        <time>2016-12-23T18:48:33Z</time>
      </trkpt>
      <trkpt lat="48.48738" lon="-4.09268">
        <ele>127</ele>
        <time>2016-12-23T18:50:33Z</time>
      </trkpt>
      <trkpt lat="48.48717" lon="-4.09451">
        <ele>124</ele>
        <time>2016-12-23T18:52:33Z</time>
      </trkpt>
      <trkpt lat="48.48677" lon="-4.09597">
        <ele>124</ele>
        <time>2016-12-23T18:54:33Z</time>
      </trkpt>
      <trkpt lat="48.48687" lon="-4.0974">
        <ele>123</ele>
        <time>2016-12-23T18:56:33Z</time>
      </trkpt>
      <trkpt lat="48.48638" lon="-4.09837">
        <ele>122</ele>
        <time>2016-12-23T18:58:33Z</time>
      </trkpt>
      <trkpt lat="48.48609" lon="-4.09936">
        <ele>122</ele>
        <time>2016-12-23T19:00:33Z</time>
      </trkpt>
      <trkpt lat="48.48517" lon="-4.09921">
        <ele>122</ele>
        <time>2016-12-23T19:02:33Z</time>
      </trkpt>
      <trkpt lat="48.48335" lon="-4.09936">
        <ele>120</ele>
        <time>2016-12-23T19:04:33Z</time>
      </trkpt>
      <trkpt lat="48.48215" lon="-4.09878">
        <ele>119</ele>
        <time>2016-12-23T19:06:33Z</time>
      </trkpt>
      <trkpt lat="48.48118" lon="-4.09732">
        <ele>116</ele>
        <time>2016-12-23T19:08:33Z</time>
      </trkpt>
      <trkpt lat="48.48006" lon="-4.09663">
        <ele>112</ele>
        <time>2016-12-23T19:10:33Z</time>
      </trkpt>
      <trkpt lat="48.4798" lon="-4.09723">
        <ele>114</ele>
        <time>2016-12-23T19:12:33Z</time>
      </trkpt>
      <trkpt lat="48.47978" lon="-4.09818">
        <ele>118</ele>
        <time>2016-12-23T19:14:33Z</time>
      </trkpt>
      <trkpt lat="48.47985" lon="-4.09933">
        <ele>121</ele>
        <time>2016-12-23T19:16:33Z</time>
      </trkpt>
      <trkpt lat="48.48025" lon="-4.10045">
        <ele>121</ele>
        <time>2016-12-23T19:18:33Z</time>
      </trkpt>
      <trkpt lat="48.48019" lon="-4.10061">
        <ele>121</ele>
        <time>2016-12-23T19:20:33Z</time>
      </trkpt>
      <trkpt lat="48.48025" lon="-4.10177">
        <ele>120</ele>
        <time>2016-12-23T19:22:33Z</time>
      </trkpt>
      <trkpt lat="48.48005" lon="-4.10221">
        <ele>118</ele>
        <time>2016-12-23T19:24:33Z</time>
      </trkpt>
      <trkpt lat="48.48009" lon="-4.10356">
        <ele>115</ele>
        <time>2016-12-23T19:26:33Z</time>
      </trkpt>
      <trkpt lat="48.47988" lon="-4.104">
        <ele>109</ele>
        <time>2016-12-23T19:28:33Z</time>
      </trkpt>
      <trkpt lat="48.47938" lon="-4.10425">
        <ele>98</ele>
        <time>2016-12-23T19:30:33Z</time>
      </trkpt>
      <trkpt lat="48.47985" lon="-4.10498">
        <ele>95</ele>
        <time>2016-12-23T19:32:33Z</time>
      </trkpt>
      <trkpt lat="48.4804" lon="-4.10652">
        <ele>88</ele>
        <time>2016-12-23T19:34:33Z</time>
      </trkpt>
      <trkpt lat="48.48027" lon="-4.10651">
        <ele>88</ele>
        <time>2016-12-23T19:36:33Z</time>
      </trkpt>
      <trkpt lat="48.47999" lon="-4.10623">
        <ele>87</ele>
        <time>2016-12-23T19:38:33Z</time>
      </trkpt>
      <trkpt lat="48.47953" lon="-4.10574">
        <ele>87</ele>
        <time>2016-12-23T19:40:33Z</time>
      </trkpt>
      <trkpt lat="48.47929" lon="-4.10545">
        <ele>87</ele>
        <time>2016-12-23T19:42:33Z</time>
      </trkpt>
      <trkpt lat="48.47882" lon="-4.10473">
        <ele>88</ele>
        <time>2016-12-23T19:44:33Z</time>
      </trkpt>
      <trkpt lat="48.47871" lon="-4.10495">
        <ele>86</ele>
        <time>2016-12-23T19:46:33Z</time>
      </trkpt>
      <trkpt lat="48.47861" lon="-4.10525">
        <ele>89</ele>
        <time>2016-12-23T19:48:33Z</time>
      </trkpt>
      <trkpt lat="48.4781" lon="-4.10512">
        <ele>89</ele>
        <time>2016-12-23T19:50:33Z</time>
      </trkpt>
      <trkpt lat="48.47785" lon="-4.10542">
        <ele>92</ele>
        <time>2016-12-23T19:52:33Z</time>
      </trkpt>
      <trkpt lat="48.47743" lon="-4.10598">
        <ele>94</ele>
        <time>2016-12-23T19:54:33Z</time>
      </trkpt>
      <trkpt lat="48.47726" lon="-4.10621">
        <ele>97</ele>
        <time>2016-12-23T19:56:33Z</time>
      </trkpt>
      <trkpt lat="48.47699" lon="-4.10677">
        <ele>99</ele>
        <time>2016-12-23T19:58:33Z</time>
      </trkpt>
      <trkpt lat="48.47621" lon="-4.10733">
        <ele>100</ele>
        <time>2016-12-23T20:00:33Z</time>
      </trkpt>
      <trkpt lat="48.47672" lon="-4.10745">
        <ele>103</ele>
        <time>2016-12-23T20:02:33Z</time>
      </trkpt>
      <trkpt lat="48.47704" lon="-4.1078">
        <ele>109</ele>
        <time>2016-12-23T20:04:33Z</time>
      </trkpt>
      <trkpt lat="48.47735" lon="-4.10741">
        <ele>111</ele>
        <time>2016-12-23T20:06:33Z</time>
      </trkpt>
      <trkpt lat="48.47756" lon="-4.1071">
        <ele>111</ele>
        <time>2016-12-23T20:08:33Z</time>
      </trkpt>
      <trkpt lat="48.47768" lon="-4.1066">
        <ele>109</ele>
        <time>2016-12-23T20:10:33Z</time>
      </trkpt>
      <trkpt lat="48.47793" lon="-4.10638">
        <ele>107</ele>
        <time>2016-12-23T20:12:33Z</time>
      </trkpt>
      <trkpt lat="48.47821" lon="-4.10643">
        <ele>111</ele>
        <time>2016-12-23T20:14:33Z</time>
      </trkpt>
      <trkpt lat="48.47847" lon="-4.10678">
        <ele>116</ele>
        <time>2016-12-23T20:16:33Z</time>
      </trkpt>
      <trkpt lat="48.47978" lon="-4.10804">
        <ele>120</ele>
        <time>2016-12-23T20:18:33Z</time>
      </trkpt>
      <trkpt lat="48.47989" lon="-4.10825">
        <ele>123</ele>
        <time>2016-12-23T20:20:33Z</time>
      </trkpt>
      <trkpt lat="48.48022" lon="-4.10834">
        <ele>119</ele>
        <time>2016-12-23T20:22:33Z</time>
      </trkpt>
      <trkpt lat="48.48052" lon="-4.10859">
        <ele>115</ele>
        <time>2016-12-23T20:24:33Z</time>
      </trkpt>
      <trkpt lat="48.48072" lon="-4.10874">
        <ele>113</ele>
        <time>2016-12-23T20:26:33Z</time>
      </trkpt>
      <trkpt lat="48.48163" lon="-4.11001">
        <ele>112</ele>
        <time>2016-12-23T20:28:33Z</time>
      </trkpt>
      <trkpt lat="48.48176" lon="-4.11021">
        <ele>111</ele>
        <time>2016-12-23T20:30:33Z</time>
      </trkpt>
      <trkpt lat="48.48251" lon="-4.11104">
        <ele>107</ele>
        <time>2016-12-23T20:32:33Z</time>
      </trkpt>
      <trkpt lat="48.4829" lon="-4.11108">
        <ele>105</ele>
        <time>2016-12-23T20:34:33Z</time>
      </trkpt>
      <trkpt lat="48.48372" lon="-4.11081">
        <ele>95</ele>
        <time>2016-12-23T20:36:33Z</time>
      </trkpt>
      <trkpt lat="48.48379" lon="-4.11095">
        <ele>97</ele>
        <time>2016-12-23T20:38:33Z</time>
      </trkpt>
      <trkpt lat="48.48407" lon="-4.1114">
        <ele>102</ele>
        <time>2016-12-23T20:40:33Z</time>
      </trkpt>
      <trkpt lat="48.48421" lon="-4.1118">
        <ele>106</ele>
        <time>2016-12-23T20:42:33Z</time>
      </trkpt>
      <trkpt lat="48.48462" lon="-4.11201">
        <ele>97</ele>
        <time>2016-12-23T20:44:33Z</time>
      </trkpt>
      <trkpt lat="48.48453" lon="-4.11228">
        <ele>101</ele>
        <time>2016-12-23T20:46:33Z</time>
      </trkpt>
      <trkpt lat="48.48434" lon="-4.11262">
        <ele>106</ele>
        <time>2016-12-23T20:48:33Z</time>
      </trkpt>
      <trkpt lat="48.48431" lon="-4.11336">
        <ele>103</ele>
        <time>2016-12-23T20:50:33Z</time>
      </trkpt>
      <trkpt lat="48.48443" lon="-4.114">
        <ele>97</ele>
        <time>2016-12-23T20:52:33Z</time>
      </trkpt>
      <trkpt lat="48.48467" lon="-4.11443">
        <ele>90</ele>
        <time>2016-12-23T20:54:33Z</time>
      </trkpt>
      <trkpt lat="48.48444" lon="-4.11486">
        <ele>94</ele>
        <time>2016-12-23T20:56:33Z</time>
      </trkpt>
      <trkpt lat="48.48438" lon="-4.11507">
        <ele>94</ele>
        <time>2016-12-23T20:58:33Z</time>
      </trkpt>
      <trkpt lat="48.48436" lon="-4.11561">
        <ele>93</ele>
        <time>2016-12-23T21:00:33Z</time>
      </trkpt>
      <trkpt lat="48.48458" lon="-4.11503">
        <ele>89</ele>
        <time>2016-12-23T21:02:33Z</time>
      </trkpt>
      <trkpt lat="48.48487" lon="-4.11477">
        <ele>84</ele>
        <time>2016-12-23T21:04:33Z</time>
      </trkpt>
      <trkpt lat="48.48519" lon="-4.11432">
        <ele>80</ele>
        <time>2016-12-23T21:06:33Z</time>
      </trkpt>
      <trkpt lat="48.48527" lon="-4.11412">
        <ele>80</ele>
        <time>2016-12-23T21:08:33Z</time>
      </trkpt>
      <trkpt lat="48.48544" lon="-4.11373">
        <ele>78</ele>
        <time>2016-12-23T21:10:33Z</time>
      </trkpt>
      <trkpt lat="48.48557" lon="-4.11351">
        <ele>75</ele>
        <time>2016-12-23T21:12:33Z</time>
      </trkpt>
      <trkpt lat="48.48521" lon="-4.11138">
        <ele>75</ele>
        <time>2016-12-23T21:14:33Z</time>
      </trkpt>
      <trkpt lat="48.48522" lon="-4.1108">
        <ele>68</ele>
        <time>2016-12-23T21:16:33Z</time>
      </trkpt>
      <trkpt lat="48.48494" lon="-4.11031">
        <ele>70</ele>
        <time>2016-12-23T21:18:33Z</time>
      </trkpt>
      <trkpt lat="48.48515" lon="-4.11012">
        <ele>72</ele>
        <time>2016-12-23T21:20:33Z</time>
      </trkpt>
      <trkpt lat="48.48551" lon="-4.11035">
        <ele>74</ele>
        <time>2016-12-23T21:22:33Z</time>
      </trkpt>
      <trkpt lat="48.48579" lon="-4.1107">
        <ele>70</ele>
        <time>2016-12-23T21:24:33Z</time>
      </trkpt>
      <trkpt lat="48.48588" lon="-4.11094">
        <ele>67</ele>
        <time>2016-12-23T21:26:33Z</time>
      </trkpt>
      <trkpt lat="48.48619" lon="-4.11108">
        <ele>72</ele>
        <time>2016-12-23T21:28:33Z</time>
      </trkpt>
      <trkpt lat="48.48639" lon="-4.11134">
        <ele>72</ele>
        <time>2016-12-23T21:30:33Z</time>
      </trkpt>
      <trkpt lat="48.4864" lon="-4.11173">
        <ele>68</ele>
        <time>2016-12-23T21:32:33Z</time>
      </trkpt>
      <trkpt lat="48.48646" lon="-4.11209">
        <ele>66</ele>
        <time>2016-12-23T21:34:33Z</time>
      </trkpt>
      <trkpt lat="48.48697" lon="-4.11297">
        <ele>68</ele>
        <time>2016-12-23T21:36:33Z</time>
      </trkpt>
      <trkpt lat="48.48699" lon="-4.11383">
        <ele>64</ele>
        <time>2016-12-23T21:38:33Z</time>
      </trkpt>
      <trkpt lat="48.48723" lon="-4.11446">
        <ele>63</ele>
        <time>2016-12-23T21:40:33Z</time>
      </trkpt>
      <trkpt lat="48.48728" lon="-4.11487">
        <ele>62</ele>
        <time>2016-12-23T21:42:33Z</time>
      </trkpt>
      <trkpt lat="48.48719" lon="-4.11519">
        <ele>61</ele>
        <time>2016-12-23T21:44:33Z</time>
      </trkpt>
      <trkpt lat="48.48703" lon="-4.11547">
        <ele>60</ele>
        <time>2016-12-23T21:46:33Z</time>
      </trkpt>
      <trkpt lat="48.487" lon="-4.11599">
        <ele>60</ele>
        <time>2016-12-23T21:48:33Z</time>
      </trkpt>
      <trkpt lat="48.48737" lon="-4.11689">
        <ele>55</ele>
        <time>2016-12-23T21:50:33Z</time>
      </trkpt>
      <trkpt lat="48.48834" lon="-4.1177">
        <ele>49</ele>
        <time>2016-12-23T21:52:33Z</time>
      </trkpt>
      <trkpt lat="48.48888" lon="-4.11822">
        <ele>45</ele>
        <time>2016-12-23T21:54:33Z</time>
      </trkpt>
      <trkpt lat="48.48948" lon="-4.11839">
        <ele>43</ele>
        <time>2016-12-23T21:56:33Z</time>
      </trkpt>
      <trkpt lat="48.49051" lon="-4.11802">
        <ele>43</ele>
        <time>2016-12-23T21:58:33Z</time>
      </trkpt>
      <trkpt lat="48.49088" lon="-4.1178">
        <ele>43</ele>
        <time>2016-12-23T22:00:33Z</time>
      </trkpt>
      <trkpt lat="48.49119" lon="-4.11794">
        <ele>41</ele>
        <time>2016-12-23T22:02:33Z</time>
      </trkpt>
      <trkpt lat="48.49142" lon="-4.11807">
        <ele>40</ele>
        <time>2016-12-23T22:04:33Z</time>
      </trkpt>
      <trkpt lat="48.49162" lon="-4.11766">
        <ele>42</ele>
        <time>2016-12-23T22:06:33Z</time>
      </trkpt>
      <trkpt lat="48.49158" lon="-4.11725">
        <ele>46</ele>
        <time>2016-12-23T22:08:33Z</time>
      </trkpt>
      <trkpt lat="48.49114" lon="-4.11687">
        <ele>51</ele>
        <time>2016-12-23T22:10:33Z</time>
      </trkpt>
      <trkpt lat="48.49061" lon="-4.11609">
        <ele>60</ele>
        <time>2016-12-23T22:12:33Z</time>
      </trkpt>
      <trkpt lat="48.49056" lon="-4.11571">
        <ele>63</ele>
        <time>2016-12-23T22:14:33Z</time>
      </trkpt>
      <trkpt lat="48.49058" lon="-4.11513">
        <ele>66</ele>
        <time>2016-12-23T22:16:33Z</time>
      </trkpt>
      <trkpt lat="48.4908" lon="-4.11485">
        <ele>65</ele>
        <time>2016-12-23T22:18:33Z</time>
      </trkpt>
      <trkpt lat="48.49104" lon="-4.11445">
        <ele>65</ele>
        <time>2016-12-23T22:20:33Z</time>
      </trkpt>
      <trkpt lat="48.49137" lon="-4.11421">
        <ele>64</ele>
        <time>2016-12-23T22:22:33Z</time>
      </trkpt>
      <trkpt lat="48.49145" lon="-4.11373">
        <ele>63</ele>
        <time>2016-12-23T22:24:33Z</time>
      </trkpt>
      <trkpt lat="48.49144" lon="-4.11356">
        <ele>63</ele>
        <time>2016-12-23T22:26:33Z</time>
      </trkpt>
      <trkpt lat="48.49148" lon="-4.11318">
        <ele>62</ele>
        <time>2016-12-23T22:28:33Z</time>
      </trkpt>
      <trkpt lat="48.49142" lon="-4.1127">
        <ele>61</ele>
        <time>2016-12-23T22:30:33Z</time>
      </trkpt>
      <trkpt lat="48.49135" lon="-4.11232">
        <ele>63</ele>
        <time>2016-12-23T22:32:33Z</time>
      </trkpt>
      <trkpt lat="48.49144" lon="-4.11215">
        <ele>63</ele>
        <time>2016-12-23T22:34:33Z</time>
      </trkpt>
      <trkpt lat="48.49178" lon="-4.11232">
        <ele>58</ele>
        <time>2016-12-23T22:36:33Z</time>
      </trkpt>
      <trkpt lat="48.49246" lon="-4.11245">
        <ele>50</ele>
        <time>2016-12-23T22:38:33Z</time>
      </trkpt>
      <trkpt lat="48.49283" lon="-4.11245">
        <ele>45</ele>
        <time>2016-12-23T22:40:33Z</time>
      </trkpt>
      <trkpt lat="48.49299" lon="-4.11175">
        <ele>47</ele>
        <time>2016-12-23T22:42:33Z</time>
      </trkpt>
      <trkpt lat="48.49319" lon="-4.11094">
        <ele>49</ele>
        <time>2016-12-23T22:44:33Z</time>
      </trkpt>
      <trkpt lat="48.4933" lon="-4.10986">
        <ele>55</ele>
        <time>2016-12-23T22:46:33Z</time>
      </trkpt>
      <trkpt lat="48.49337" lon="-4.10893">
        <ele>61</ele>
        <time>2016-12-23T22:48:33Z</time>
      </trkpt>
      <trkpt lat="48.49347" lon="-4.10764">
        <ele>68</ele>
        <time>2016-12-23T22:50:33Z</time>
      </trkpt>
      <trkpt lat="48.49333" lon="-4.10602">
        <ele>74</ele>
        <time>2016-12-23T22:52:33Z</time>
      </trkpt>
      <trkpt lat="48.49327" lon="-4.10505">
        <ele>71</ele>
        <time>2016-12-23T22:54:33Z</time>
      </trkpt>
      <trkpt lat="48.49356" lon="-4.10387">
        <ele>59</ele>
        <time>2016-12-23T22:56:33Z</time>
      </trkpt>
      <trkpt lat="48.49388" lon="-4.10284">
        <ele>50</ele>
        <time>2016-12-23T22:58:33Z</time>
      </trkpt>
      <trkpt lat="48.49396" lon="-4.10263">
        <ele>48</ele>
        <time>2016-12-23T23:00:33Z</time>
      </trkpt>
      <trkpt lat="48.49421" lon="-4.10246">
        <ele>42</ele>
        <time>2016-12-23T23:02:33Z</time>
      </trkpt>
      <trkpt lat="48.49458" lon="-4.1012">
        <ele>41</ele>
        <time>2016-12-23T23:04:33Z</time>
      </trkpt>
      <trkpt lat="48.49509" lon="-4.10171">
        <ele>37</ele>
        <time>2016-12-23T23:06:33Z</time>
      </trkpt>
      <trkpt lat="48.49611" lon="-4.09965">
        <ele>39</ele>
        <time>2016-12-23T23:08:33Z</time>
      </trkpt>
      <trkpt lat="48.49632" lon="-4.09939">
        <ele>41</ele>
        <time>2016-12-23T23:10:33Z</time>
      </trkpt>
      <trkpt lat="48.49681" lon="-4.09797">
        <ele>50</ele>
        <time>2016-12-23T23:12:33Z</time>
      </trkpt>
      <trkpt lat="48.49717" lon="-4.09836">
        <ele>48</ele>
        <time>2016-12-23T23:14:33Z</time>
      </trkpt>
      <trkpt lat="48.49738" lon="-4.099">
        <ele>45</ele>
        <time>2016-12-23T23:16:33Z</time>
      </trkpt>
      <trkpt lat="48.4976" lon="-4.09922">
        <ele>44</ele>
        <time>2016-12-23T23:18:33Z</time>
      </trkpt>
      <trkpt lat="48.49784" lon="-4.09912">
        <ele>42</ele>
        <time>2016-12-23T23:20:33Z</time>
      </trkpt>
      <trkpt lat="48.49813" lon="-4.09873">
        <ele>40</ele>
        <time>2016-12-23T23:22:33Z</time>
      </trkpt>
      <trkpt lat="48.49834" lon="-4.09857">
        <ele>38</ele>
        <time>2016-12-23T23:24:33Z</time>
      </trkpt>
      <trkpt lat="48.49857" lon="-4.0996">
        <ele>39</ele>
        <time>2016-12-23T23:26:33Z</time>
      </trkpt>
      <trkpt lat="48.49876" lon="-4.09941">
        <ele>41</ele>
        <time>2016-12-23T23:28:33Z</time>
      </trkpt>
      <trkpt lat="48.499" lon="-4.09984">
        <ele>43</ele>
        <time>2016-12-23T23:30:33Z</time>
      </trkpt>
      <trkpt lat="48.49912" lon="-4.0998">
        <ele>44</ele>
        <time>2016-12-23T23:32:33Z</time>
      </trkpt>
      <trkpt lat="48.49916" lon="-4.09945">
        <ele>45</ele>
        <time>2016-12-23T23:34:33Z</time>
      </trkpt>
      <trkpt lat="48.49914" lon="-4.0992">
        <ele>46</ele>
        <time>2016-12-23T23:36:33Z</time>
      </trkpt>
      <trkpt lat="48.49909" lon="-4.09862">
        <ele>45</ele>
        <time>2016-12-23T23:38:33Z</time>
      </trkpt>
      <trkpt lat="48.49899" lon="-4.09731">
        <ele>41</ele>
        <time>2016-12-23T23:40:33Z</time>
      </trkpt>
      <trkpt lat="48.49897" lon="-4.09684">
        <ele>41</ele>
        <time>2016-12-23T23:42:33Z</time>
      </trkpt>
      <trkpt lat="48.49969" lon="-4.09677">
        <ele>50</ele>
        <time>2016-12-23T23:44:33Z</time>
      </trkpt>
      <trkpt lat="48.50057" lon="-4.09695">
        <ele>57</ele>
        <time>2016-12-23T23:46:33Z</time>
      </trkpt>
      <trkpt lat="48.50084" lon="-4.09709">
        <ele>59</ele>
        <time>2016-12-23T23:48:33Z</time>
      </trkpt>
      <trkpt lat="48.50095" lon="-4.09696">
        <ele>58</ele>
        <time>2016-12-23T23:50:33Z</time>
      </trkpt>
      <trkpt lat="48.50196" lon="-4.09726">
        <ele>57</ele>
        <time>2016-12-23T23:52:33Z</time>
      </trkpt>
      <trkpt lat="48.50289" lon="-4.09763">
        <ele>59</ele>
        <time>2016-12-23T23:54:33Z</time>
      </trkpt>
      <trkpt lat="48.5037" lon="-4.09741">
        <ele>62</ele>
        <time>2016-12-23T23:56:33Z</time>
      </trkpt>
      <trkpt lat="48.50414" lon="-4.09747">
        <ele>64</ele>
        <time>2016-12-23T23:58:33Z</time>
      </trkpt>
      <trkpt lat="48.5045" lon="-4.09733">
        <ele>64</ele>
        <time>2016-12-24T00:00:33Z</time>
      </trkpt>
      <trkpt lat="48.50423" lon="-4.10339">
        <ele>73</ele>
        <time>2016-12-24T00:02:33Z</time>
      </trkpt>
      <trkpt lat="48.50488" lon="-4.1088">
        <ele>64</ele>
        <time>2016-12-24T00:04:33Z</time>
      </trkpt>
      <trkpt lat="48.50482" lon="-4.11084">
        <ele>59</ele>
        <time>2016-12-24T00:06:33Z</time>
      </trkpt>
      <trkpt lat="48.50678" lon="-4.10995">
        <ele>51</ele>
        <time>2016-12-24T00:08:33Z</time>
      </trkpt>
      <trkpt lat="48.50642" lon="-4.11338">
        <ele>47</ele>
        <time>2016-12-24T00:10:33Z</time>
      </trkpt>
      <trkpt lat="48.50635" lon="-4.11505">
        <ele>58</ele>
        <time>2016-12-24T00:12:33Z</time>
      </trkpt>
      <trkpt lat="48.5062" lon="-4.11623">
        <ele>59</ele>
        <time>2016-12-24T00:14:33Z</time>
      </trkpt>
      <trkpt lat="48.50691" lon="-4.1163">
        <ele>61</ele>
        <time>2016-12-24T00:16:33Z</time>
      </trkpt>
      <trkpt lat="48.50689" lon="-4.11531">
        <ele>59</ele>
        <time>2016-12-24T00:18:33Z</time>
      </trkpt>
      <trkpt lat="48.507" lon="-4.11325">
        <ele>48</ele>
        <time>2016-12-24T00:20:33Z</time>
      </trkpt>
      <trkpt lat="48.50701" lon="-4.11148">
        <ele>51</ele>
        <time>2016-12-24T00:22:33Z</time>
      </trkpt>
      <trkpt lat="48.50715" lon="-4.11087">
        <ele>53</ele>
        <time>2016-12-24T00:24:33Z</time>
      </trkpt>
      <trkpt lat="48.50718" lon="-4.11054">
        <ele>53</ele>
        <time>2016-12-24T00:26:33Z</time>
      </trkpt>
      <trkpt lat="48.50751" lon="-4.11035">
        <ele>54</ele>
        <time>2016-12-24T00:28:33Z</time>
      </trkpt>
      <trkpt lat="48.50763" lon="-4.11011">
        <ele>54</ele>
        <time>2016-12-24T00:30:33Z</time>
      </trkpt>
      <trkpt lat="48.5078" lon="-4.10938">
        <ele>52</ele>
        <time>2016-12-24T00:32:33Z</time>
      </trkpt>
      <trkpt lat="48.50799" lon="-4.10921">
        <ele>51</ele>
        <time>2016-12-24T00:34:33Z</time>
      </trkpt>
      <trkpt lat="48.50845" lon="-4.10966">
        <ele>54</ele>
        <time>2016-12-24T00:36:33Z</time>
      </trkpt>
      <trkpt lat="48.50894" lon="-4.10976">
        <ele>52</ele>
        <time>2016-12-24T00:38:33Z</time>
      </trkpt>
      <trkpt lat="48.50968" lon="-4.10929">
        <ele>52</ele>
        <time>2016-12-24T00:40:33Z</time>
      </trkpt>
      <trkpt lat="48.51031" lon="-4.10912">
        <ele>54</ele>
        <time>2016-12-24T00:42:33Z</time>
      </trkpt>
      <trkpt lat="48.51149" lon="-4.10891">
        <ele>57</ele>
        <time>2016-12-24T00:44:33Z</time>
      </trkpt>
      <trkpt lat="48.51124" lon="-4.10765">
        <ele>57</ele>
        <time>2016-12-24T00:46:33Z</time>
      </trkpt>
      <trkpt lat="48.51147" lon="-4.10722">
        <ele>57</ele>
        <time>2016-12-24T00:48:33Z</time>
      </trkpt>
      <trkpt lat="48.51181" lon="-4.10689">
        <ele>57</ele>
        <time>2016-12-24T00:50:33Z</time>
      </trkpt>
      <trkpt lat="48.51209" lon="-4.1068">
        <ele>57</ele>
        <time>2016-12-24T00:52:33Z</time>
      </trkpt>
      <trkpt lat="48.5125" lon="-4.10669">
        <ele>57</ele>
        <time>2016-12-24T00:54:33Z</time>
      </trkpt>
      <trkpt lat="48.51284" lon="-4.10667">
        <ele>56</ele>
        <time>2016-12-24T00:56:33Z</time>
      </trkpt>
      <trkpt lat="48.51323" lon="-4.10632">
        <ele>56</ele>
        <time>2016-12-24T00:58:33Z</time>
      </trkpt>
      <trkpt lat="48.51366" lon="-4.10602">
        <ele>55</ele>
        <time>2016-12-24T01:00:33Z</time>
      </trkpt>
      <trkpt lat="48.51397" lon="-4.10572">
        <ele>55</ele>
        <time>2016-12-24T01:02:33Z</time>
      </trkpt>
      <trkpt lat="48.51348" lon="-4.10543">
        <ele>57</ele>
        <time>2016-12-24T01:04:33Z</time>
      </trkpt>
      <trkpt lat="48.51347" lon="-4.10157">
        <ele>58</ele>
        <time>2016-12-24T01:06:33Z</time>
      </trkpt>
      <trkpt lat="48.51349" lon="-4.10097">
        <ele>60</ele>
        <time>2016-12-24T01:08:33Z</time>
      </trkpt>
      <trkpt lat="48.51328" lon="-4.10091">
        <ele>61</ele>
        <time>2016-12-24T01:10:33Z</time>
      </trkpt>
      <trkpt lat="48.51321" lon="-4.10001">
        <ele>62</ele>
        <time>2016-12-24T01:12:33Z</time>
      </trkpt>
      <trkpt lat="48.51313" lon="-4.09758">
        <ele>68</ele>
        <time>2016-12-24T01:14:33Z</time>
      </trkpt>
      <trkpt lat="48.51325" lon="-4.0957">
        <ele>70</ele>
        <time>2016-12-24T01:16:33Z</time>
      </trkpt>
      <trkpt lat="48.51349" lon="-4.09503">
        <ele>70</ele>
        <time>2016-12-24T01:18:33Z</time>
      </trkpt>
      <trkpt lat="48.51366" lon="-4.09394">
        <ele>73</ele>
        <time>2016-12-24T01:20:33Z</time>
      </trkpt>
      <trkpt lat="48.5136" lon="-4.09329">
        <ele>76</ele>
        <time>2016-12-24T01:22:33Z</time>
      </trkpt>
      <trkpt lat="48.51427" lon="-4.09351">
        <ele>72</ele>
        <time>2016-12-24T01:24:33Z</time>
      </trkpt>
      <trkpt lat="48.51488" lon="-4.09344">
        <ele>69</ele>
        <time>2016-12-24T01:26:33Z</time>
      </trkpt>
      <trkpt lat="48.51572" lon="-4.0939">
        <ele>67</ele>
        <time>2016-12-24T01:28:33Z</time>
      </trkpt>
      <trkpt lat="48.51603" lon="-4.09406">
        <ele>67</ele>
        <time>2016-12-24T01:30:33Z</time>
      </trkpt>
      <trkpt lat="48.5166" lon="-4.08916">
        <ele>77</ele>
        <time>2016-12-24T01:32:33Z</time>
      </trkpt>
      <trkpt lat="48.51767" lon="-4.08905">
        <ele>79</ele>
        <time>2016-12-24T01:34:33Z</time>
      </trkpt>
      <trkpt lat="48.5186" lon="-4.0887">
        <ele>79</ele>
        <time>2016-12-24T01:36:33Z</time>
      </trkpt>
      <trkpt lat="48.51979" lon="-4.0893">
        <ele>75</ele>
        <time>2016-12-24T01:38:33Z</time>
      </trkpt>
      <trkpt lat="48.52109" lon="-4.08939">
        <ele>76</ele>
        <time>2016-12-24T01:40:33Z</time>
      </trkpt>
      <trkpt lat="48.52143" lon="-4.08948">
        <ele>77</ele>
        <time>2016-12-24T01:42:33Z</time>
      </trkpt>
      <trkpt lat="48.52151" lon="-4.08868">
        <ele>79</ele>
        <time>2016-12-24T01:44:33Z</time>
      </trkpt>
      <trkpt lat="48.52131" lon="-4.0886">
        <ele>78</ele>
        <time>2016-12-24T01:46:33Z</time>
      </trkpt>
      <trkpt lat="48.52117" lon="-4.08836">
        <ele>77</ele>
        <time>2016-12-24T01:48:33Z</time>
      </trkpt>
      <trkpt lat="48.52106" lon="-4.08817">
        <ele>77</ele>
        <time>2016-12-24T01:50:33Z</time>
      </trkpt>
      <trkpt lat="48.5213" lon="-4.08765">
        <ele>79</ele>
        <time>2016-12-24T01:52:33Z</time>
      </trkpt>
      <trkpt lat="48.52148" lon="-4.0876">
        <ele>80</ele>
        <time>2016-12-24T01:54:33Z</time>
      </trkpt>
      <trkpt lat="48.52173" lon="-4.08773">
        <ele>82</ele>
        <time>2016-12-24T01:56:33Z</time>
      </trkpt>
      <trkpt lat="48.52197" lon="-4.08731">
        <ele>83</ele>
        <time>2016-12-24T01:58:33Z</time>
      </trkpt>
      <trkpt lat="48.52195" lon="-4.08715">
        <ele>83</ele>
        <time>2016-12-24T02:00:33Z</time>
      </trkpt>
      <trkpt lat="48.52141" lon="-4.08704">
        <ele>81</ele>
        <time>2016-12-24T02:02:33Z</time>
      </trkpt>
      <trkpt lat="48.52136" lon="-4.08666">
        <ele>81</ele>
        <time>2016-12-24T02:04:33Z</time>
      </trkpt>
      <trkpt lat="48.52122" lon="-4.08605">
        <ele>80</ele>
        <time>2016-12-24T02:06:33Z</time>
      </trkpt>
      <trkpt lat="48.52126" lon="-4.08529">
        <ele>80</ele>
        <time>2016-12-24T02:08:33Z</time>
      </trkpt>
      <trkpt lat="48.52105" lon="-4.08486">
        <ele>80</ele>
        <time>2016-12-24T02:10:33Z</time>
      </trkpt>
      <trkpt lat="48.52115" lon="-4.08437">
        <ele>81</ele>
        <time>2016-12-24T02:12:33Z</time>
      </trkpt>
      <trkpt lat="48.52161" lon="-4.08441">
        <ele>81</ele>
        <time>2016-12-24T02:14:33Z</time>
      </trkpt>
      <trkpt lat="48.52212" lon="-4.08497">
        <ele>86</ele>
        <time>2016-12-24T02:16:33Z</time>
      </trkpt>
      <trkpt lat="48.52269" lon="-4.08548">
        <ele>91</ele>
        <time>2016-12-24T02:18:33Z</time>
      </trkpt>
      <trkpt lat="48.52307" lon="-4.08553">
        <ele>90</ele>
        <time>2016-12-24T02:20:33Z</time>
      </trkpt>
      <trkpt lat="48.5231" lon="-4.0853">
        <ele>90</ele>
        <time>2016-12-24T02:22:33Z</time>
      </trkpt>
      <trkpt lat="48.52281" lon="-4.08514">
        <ele>91</ele>
        <time>2016-12-24T02:24:33Z</time>
      </trkpt>
      <trkpt lat="48.522" lon="-4.08411">
        <ele>83</ele>
        <time>2016-12-24T02:26:33Z</time>
      </trkpt>
      <trkpt lat="48.52269" lon="-4.08188">
        <ele>89</ele>
        <time>2016-12-24T02:28:33Z</time>
      </trkpt>
      <trkpt lat="48.52281" lon="-4.08201">
        <ele>89</ele>
        <time>2016-12-24T02:30:33Z</time>
      </trkpt>
      <trkpt lat="48.52384" lon="-4.08065">
        <ele>95</ele>
        <time>2016-12-24T02:32:33Z</time>
      </trkpt>
      <trkpt lat="48.52455" lon="-4.07974">
        <ele>98</ele>
        <time>2016-12-24T02:34:33Z</time>
      </trkpt>
      <trkpt lat="48.52492" lon="-4.07955">
        <ele>99</ele>
        <time>2016-12-24T02:36:33Z</time>
      </trkpt>
      <trkpt lat="48.52513" lon="-4.07927">
        <ele>100</ele>
        <time>2016-12-24T02:38:33Z</time>
      </trkpt>
      <trkpt lat="48.5249" lon="-4.08213">
        <ele>95</ele>
        <time>2016-12-24T02:40:33Z</time>
      </trkpt>
      <trkpt lat="48.52463" lon="-4.08436">
        <ele>97</ele>
        <time>2016-12-24T02:42:33Z</time>
      </trkpt>
      <trkpt lat="48.52402" lon="-4.08559">
        <ele>92</ele>
        <time>2016-12-24T02:44:33Z</time>
      </trkpt>
      <trkpt lat="48.52514" lon="-4.08659">
        <ele>97</ele>
        <time>2016-12-24T02:46:33Z</time>
      </trkpt>
      <trkpt lat="48.52588" lon="-4.08723">
        <ele>102</ele>
        <time>2016-12-24T02:48:33Z</time>
      </trkpt>
      <trkpt lat="48.52635" lon="-4.08792">
        <ele>103</ele>
        <time>2016-12-24T02:50:33Z</time>
      </trkpt>
      <trkpt lat="48.52686" lon="-4.08654">
        <ele>105</ele>
        <time>2016-12-24T02:52:33Z</time>
      </trkpt>
      <trkpt lat="48.52713" lon="-4.08641">
        <ele>105</ele>
        <time>2016-12-24T02:54:33Z</time>
      </trkpt>
      <trkpt lat="48.52782" lon="-4.08649">
        <ele>106</ele>
        <time>2016-12-24T02:56:33Z</time>
      </trkpt>
      <trkpt lat="48.52798" lon="-4.08598">
        <ele>107</ele>
        <time>2016-12-24T02:58:33Z</time>
      </trkpt>
      <trkpt lat="48.52828" lon="-4.08505">
        <ele>109</ele>
        <time>2016-12-24T03:00:33Z</time>
      </trkpt>
      <trkpt lat="48.52879" lon="-4.08402">
        <ele>111</ele>
        <time>2016-12-24T03:02:33Z</time>
      </trkpt>
      <trkpt lat="48.52924" lon="-4.08308">
        <ele>113</ele>
        <time>2016-12-24T03:04:33Z</time>
      </trkpt>
      <trkpt lat="48.52983" lon="-4.08345">
        <ele>113</ele>
        <time>2016-12-24T03:06:33Z</time>
      </trkpt>
      <trkpt lat="48.5316" lon="-4.08526">
        <ele>101</ele>
        <time>2016-12-24T03:08:33Z</time>
      </trkpt>
      <trkpt lat="48.53221" lon="-4.08483">
        <ele>101</ele>
        <time>2016-12-24T03:10:33Z</time>
      </trkpt>
      <trkpt lat="48.53279" lon="-4.08483">
        <ele>100</ele>
        <time>2016-12-24T03:12:33Z</time>
      </trkpt>
      <trkpt lat="48.53304" lon="-4.08466">
        <ele>100</ele>
        <time>2016-12-24T03:14:33Z</time>
      </trkpt>
      <trkpt lat="48.53387" lon="-4.08534">
        <ele>104</ele>
        <time>2016-12-24T03:16:33Z</time>
      </trkpt>
      <trkpt lat="48.5352" lon="-4.0874">
        <ele>108</ele>
        <time>2016-12-24T03:18:33Z</time>
      </trkpt>
      <trkpt lat="48.5362" lon="-4.08766">
        <ele>113</ele>
        <time>2016-12-24T03:20:33Z</time>
      </trkpt>
      <trkpt lat="48.53637" lon="-4.08801">
        <ele>114</ele>
        <time>2016-12-24T03:22:33Z</time>
      </trkpt>
      <trkpt lat="48.53728" lon="-4.08848">
        <ele>116</ele>
        <time>2016-12-24T03:24:33Z</time>
      </trkpt>
      <trkpt lat="48.53749" lon="-4.08753">
        <ele>116</ele>
        <time>2016-12-24T03:26:33Z</time>
      </trkpt>
      <trkpt lat="48.53864" lon="-4.08734">
        <ele>118</ele>
        <time>2016-12-24T03:28:33Z</time>
      </trkpt>
      <trkpt lat="48.53995" lon="-4.08683">
        <ele>117</ele>
        <time>2016-12-24T03:30:33Z</time>
      </trkpt>
      <trkpt lat="48.5404" lon="-4.0864">
        <ele>117</ele>
        <time>2016-12-24T03:32:33Z</time>
      </trkpt>
      <trkpt lat="48.54045" lon="-4.08524">
        <ele>119</ele>
        <time>2016-12-24T03:34:33Z</time>
      </trkpt>
      <trkpt lat="48.54066" lon="-4.08399">
        <ele>117</ele>
        <time>2016-12-24T03:36:33Z</time>
      </trkpt>
      <trkpt lat="48.54094" lon="-4.08286">
        <ele>118</ele>
        <time>2016-12-24T03:38:33Z</time>
      </trkpt>
      <trkpt lat="48.54111" lon="-4.08165">
        <ele>119</ele>
        <time>2016-12-24T03:40:33Z</time>
      </trkpt>
      <trkpt lat="48.54151" lon="-4.08077">
        <ele>119</ele>
        <time>2016-12-24T03:42:33Z</time>
      </trkpt>
      <trkpt lat="48.5414" lon="-4.07996">
        <ele>119</ele>
        <time>2016-12-24T03:44:33Z</time>
      </trkpt>
      <trkpt lat="48.54183" lon="-4.0767">
        <ele>122</ele>
        <time>2016-12-24T03:46:33Z</time>
      </trkpt>
      <trkpt lat="48.54177" lon="-4.07644">
        <ele>123</ele>
        <time>2016-12-24T03:48:33Z</time>
      </trkpt>
      <trkpt lat="48.54219" lon="-4.0761">
        <ele>124</ele>
        <time>2016-12-24T03:50:33Z</time>
      </trkpt>
      <trkpt lat="48.54248" lon="-4.07352">
        <ele>124</ele>
        <time>2016-12-24T03:52:33Z</time>
      </trkpt>
      <trkpt lat="48.54256" lon="-4.07303">
        <ele>123</ele>
        <time>2016-12-24T03:54:33Z</time>
      </trkpt>
      <trkpt lat="48.54256" lon="-4.07232">
        <ele>123</ele>
        <time>2016-12-24T03:56:33Z</time>
      </trkpt>
      <trkpt lat="48.54306" lon="-4.07112">
        <ele>123</ele>
        <time>2016-12-24T03:58:33Z</time>
      </trkpt>
      <trkpt lat="48.54333" lon="-4.06957">
        <ele>122</ele>
        <time>2016-12-24T04:00:33Z</time>
      </trkpt>
      <trkpt lat="48.54363" lon="-4.06807">
        <ele>120</ele>
        <time>2016-12-24T04:02:33Z</time>
      </trkpt>
      <trkpt lat="48.54401" lon="-4.06721">
        <ele>120</ele>
        <time>2016-12-24T04:04:33Z</time>
      </trkpt>
      <trkpt lat="48.54413" lon="-4.06668">
        <ele>120</ele>
        <time>2016-12-24T04:06:33Z</time>
      </trkpt>
      <trkpt lat="48.54464" lon="-4.06567">
        <ele>118</ele>
        <time>2016-12-24T04:08:33Z</time>
      </trkpt>
      <trkpt lat="48.54487" lon="-4.06404">
        <ele>117</ele>
        <time>2016-12-24T04:10:33Z</time>
      </trkpt>
      <trkpt lat="48.54501" lon="-4.06228">
        <ele>118</ele>
        <time>2016-12-24T04:12:33Z</time>
      </trkpt>
      <trkpt lat="48.54499" lon="-4.06056">
        <ele>116</ele>
        <time>2016-12-24T04:14:33Z</time>
      </trkpt>
      <trkpt lat="48.54501" lon="-4.05773">
        <ele>112</ele>
        <time>2016-12-24T04:16:33Z</time>
      </trkpt>
      <trkpt lat="48.54529" lon="-4.057">
        <ele>111</ele>
        <time>2016-12-24T04:18:33Z</time>
      </trkpt>
      <trkpt lat="48.54516" lon="-4.05423">
        <ele>115</ele>
        <time>2016-12-24T04:20:33Z</time>
      </trkpt>
      <trkpt lat="48.54499" lon="-4.05251">
        <ele>119</ele>
        <time>2016-12-24T04:22:33Z</time>
      </trkpt>
      <trkpt lat="48.54468" lon="-4.0499">
        <ele>122</ele>
        <time>2016-12-24T04:24:33Z</time>
      </trkpt>
      <trkpt lat="48.54477" lon="-4.04732">
        <ele>124</ele>
        <time>2016-12-24T04:26:33Z</time>
      </trkpt>
      <trkpt lat="48.54454" lon="-4.04621">
        <ele>125</ele>
        <time>2016-12-24T04:28:33Z</time>
      </trkpt>
      <trkpt lat="48.54444" lon="-4.0441">
        <ele>123</ele>
        <time>2016-12-24T04:30:33Z</time>
      </trkpt>
      <trkpt lat="48.54329" lon="-4.04458">
        <ele>124</ele>
        <time>2016-12-24T04:32:33Z</time>
      </trkpt>
      <trkpt lat="48.54195" lon="-4.04365">
        <ele>126</ele>
        <time>2016-12-24T04:34:33Z</time>
      </trkpt>
      <trkpt lat="48.54138" lon="-4.04367">
        <ele>128</ele>
        <time>2016-12-24T04:36:33Z</time>
      </trkpt>
      <trkpt lat="48.54013" lon="-4.04451">
        <ele>131</ele>
        <time>2016-12-24T04:38:33Z</time>
      </trkpt>
      <trkpt lat="48.53735" lon="-4.04612">
        <ele>130</ele>
        <time>2016-12-24T04:40:33Z</time>
      </trkpt>
      <trkpt lat="48.53701" lon="-4.0467">
        <ele>127</ele>
        <time>2016-12-24T04:42:33Z</time>
      </trkpt>
      <trkpt lat="48.53687" lon="-4.04756">
        <ele>127</ele>
        <time>2016-12-24T04:44:33Z</time>
      </trkpt>
      <trkpt lat="48.53584" lon="-4.04741">
        <ele>127</ele>
        <time>2016-12-24T04:46:33Z</time>
      </trkpt>
      <trkpt lat="48.53519" lon="-4.04775">
        <ele>126</ele>
        <time>2016-12-24T04:48:33Z</time>
      </trkpt>
      <trkpt lat="48.53262" lon="-4.04895">
        <ele>124</ele>
        <time>2016-12-24T04:50:33Z</time>
      </trkpt>
      <trkpt lat="48.53198" lon="-4.04938">
        <ele>123</ele>
        <time>2016-12-24T04:52:33Z</time>
      </trkpt>
      <trkpt lat="48.53135" lon="-4.04985">
        <ele>122</ele>
        <time>2016-12-24T04:54:33Z</time>
      </trkpt>
      <trkpt lat="48.53029" lon="-4.05028">
        <ele>122</ele>
        <time>2016-12-24T04:56:33Z</time>
      </trkpt>
      <trkpt lat="48.53033" lon="-4.05213">
        <ele>120</ele>
        <time>2016-12-24T04:58:33Z</time>
      </trkpt>
      <trkpt lat="48.52927" lon="-4.05211">
        <ele>118</ele>
        <time>2016-12-24T05:00:33Z</time>
      </trkpt>
      <trkpt lat="48.52833" lon="-4.05771">
        <ele>106</ele>
        <time>2016-12-24T05:02:33Z</time>
      </trkpt>
      <trkpt lat="48.52514" lon="-4.0594">
        <ele>102</ele>
        <time>2016-12-24T05:04:33Z</time>
      </trkpt>
      <trkpt lat="48.5244" lon="-4.05846">
        <ele>106</ele>
        <time>2016-12-24T05:06:33Z</time>
      </trkpt>
      <trkpt lat="48.52431" lon="-4.05646">
        <ele>112</ele>
        <time>2016-12-24T05:08:33Z</time>
      </trkpt>
      <trkpt lat="48.52432" lon="-4.05333">
        <ele>116</ele>
        <time>2016-12-24T05:10:33Z</time>
      </trkpt>
      <trkpt lat="48.52419" lon="-4.05296">
        <ele>115</ele>
        <time>2016-12-24T05:12:33Z</time>
      </trkpt>
      <trkpt lat="48.52297" lon="-4.05324">
        <ele>110</ele>
        <time>2016-12-24T05:14:33Z</time>
      </trkpt>
      <trkpt lat="48.52119" lon="-4.05427">
        <ele>106</ele>
        <time>2016-12-24T05:16:33Z</time>
      </trkpt>
      <trkpt lat="48.52088" lon="-4.05084">
        <ele>101</ele>
        <time>2016-12-24T05:18:33Z</time>
      </trkpt>
      <trkpt lat="48.52068" lon="-4.04985">
        <ele>103</ele>
        <time>2016-12-24T05:20:33Z</time>
      </trkpt>
      <trkpt lat="48.52077" lon="-4.0491">
        <ele>103</ele>
        <time>2016-12-24T05:22:33Z</time>
      </trkpt>
      <trkpt lat="48.51996" lon="-4.04638">
        <ele>91</ele>
        <time>2016-12-24T05:24:33Z</time>
      </trkpt>
      <trkpt lat="48.51956" lon="-4.04625">
        <ele>90</ele>
        <time>2016-12-24T05:26:33Z</time>
      </trkpt>
      <trkpt lat="48.51792" lon="-4.04655">
        <ele>89</ele>
        <time>2016-12-24T05:28:33Z</time>
      </trkpt>
      <trkpt lat="48.51636" lon="-4.05153">
        <ele>101</ele>
        <time>2016-12-24T05:30:33Z</time>
      </trkpt>
      <trkpt lat="48.51453" lon="-4.05009">
        <ele>92</ele>
        <time>2016-12-24T05:32:33Z</time>
      </trkpt>
    </trkseg>
  </trk>
</gpx>